Rockwood, New York
Current Conditions -  °F | °C
As of 9:15 AM on Friday 19 Dec 2014 (Local Time) from KNY0 Reporting Station
Overcast Overcast  
Wind Chill: 14°   Ceiling: 1800
Heat Index: 25°   Visibility: 10mi
Dew Point: 19°   Wind: 10mph
Humidity: 79%   Direction: 290°WNW
Pressure: 30.03"   Gusts: 18mph
Location:  43.0176°N, 74.3982°W
Report Text: KNY0 191415Z AUTO 29009G16KT 10SM OVC018 M04/M07 A3003 RMK AO2 T10411073
Loading
Personal Weather Stations






























Interactive Weather Map New forecast layout! Learn more

10-Day Weather Forecast

Advertisements
Track Severe Weather on mobile